createdAt,value
2022-09-26T00:01:17.030Z,35.47
2022-09-26T00:02:24.595Z,35.31
2022-09-26T00:03:33.443Z,35.14
2022-09-26T00:04:40.784Z,35.05
2022-09-26T00:05:47.993Z,34.94
2022-09-26T00:06:56.963Z,34.85
2022-09-26T00:08:04.149Z,34.77
2022-09-26T00:09:11.416Z,34.79
2022-09-26T00:10:18.537Z,34.92
2022-09-26T00:11:27.823Z,35.18
2022-09-26T00:12:38.131Z,35.52
2022-09-26T00:13:45.795Z,35.94
2022-09-26T00:14:53.607Z,36.13
2022-09-26T00:16:00.965Z,36.35
2022-09-26T00:17:08.285Z,36.46
2022-09-26T00:18:15.802Z,36.62
2022-09-26T00:19:23.015Z,36.58
2022-09-26T00:20:31.902Z,36.51
2022-09-26T00:21:39.924Z,36.47
2022-09-26T00:22:47.173Z,36.52
2022-09-26T00:23:56.380Z,36.32
2022-09-26T00:25:03.602Z,36.06
2022-09-26T00:26:11.314Z,35.81
2022-09-26T00:27:18.676Z,35.63
2022-09-26T00:28:26.233Z,35.52
2022-09-26T00:29:33.673Z,35.34
2022-09-26T00:30:40.722Z,35.27
2022-09-26T00:31:50.505Z,35.18
2022-09-26T00:32:58.044Z,35.04
2022-09-26T00:34:05.805Z,34.85
2022-09-26T00:35:13.046Z,34.72
2022-09-26T00:36:20.844Z,34.56
2022-09-26T00:37:28.854Z,34.43
2022-09-26T00:38:36.950Z,34.34
2022-09-26T00:39:44.281Z,34.31
2022-09-26T00:40:51.759Z,34.39
2022-09-26T00:41:59.151Z,34.52
2022-09-26T00:43:06.588Z,34.61
2022-09-26T00:44:35.830Z,34.82
2022-09-26T00:45:43.196Z,35.00
2022-09-26T00:46:50.670Z,35.09
2022-09-26T00:48:04.053Z,35.21
2022-09-26T00:49:34.480Z,35.28
2022-09-26T00:50:42.375Z,35.41
2022-09-26T00:51:54.058Z,35.51
2022-09-26T00:53:03.967Z,35.60
2022-09-26T00:54:12.425Z,35.63
2022-09-26T00:55:20.709Z,35.68
2022-09-26T00:56:35.691Z,35.78
2022-09-26T00:57:51.108Z,35.70
2022-09-26T00:59:23.528Z,35.51
2022-09-26T01:00:30.617Z,35.32
2022-09-26T01:01:38.201Z,35.24
2022-09-26T01:02:45.859Z,35.17
2022-09-26T01:03:52.783Z,35.15
2022-09-26T01:04:59.988Z,35.21
2022-09-26T01:06:07.107Z,35.23
2022-09-26T01:07:21.029Z,35.22
2022-09-26T01:08:33.387Z,35.00
2022-09-26T01:09:40.698Z,34.73
2022-09-26T01:10:47.988Z,34.51
2022-09-26T01:11:55.164Z,34.33
2022-09-26T01:13:02.484Z,34.07
2022-09-26T01:14:10.653Z,33.95
2022-09-26T01:15:17.922Z,33.73
2022-09-26T01:16:25.472Z,33.63
2022-09-26T01:17:33.719Z,33.60
2022-09-26T01:18:40.916Z,33.43
2022-09-26T01:20:24.963Z,33.26
2022-09-26T01:21:58.936Z,32.99
2022-09-26T01:23:28.966Z,32.71
2022-09-26T01:24:47.321Z,32.42
2022-09-26T01:26:19.170Z,32.19
2022-09-26T01:27:46.066Z,31.92
2022-09-26T01:29:31.859Z,31.68
2022-09-26T01:30:56.773Z,31.44
2022-09-26T01:32:50.111Z,31.26
2022-09-26T01:34:15.785Z,31.07
2022-09-26T01:35:29.358Z,30.93
2022-09-26T01:36:40.736Z,30.81
2022-09-26T01:38:08.861Z,30.71
2022-09-26T01:39:16.753Z,30.58
2022-09-26T01:40:34.220Z,30.50
2022-09-26T01:41:50.798Z,30.40
2022-09-26T01:43:17.464Z,30.31
2022-09-26T01:44:49.436Z,30.19
2022-09-26T01:46:11.961Z,30.10
2022-09-26T01:47:37.378Z,30.03
2022-09-26T01:48:49.805Z,29.94
2022-09-26T01:50:03.029Z,29.87
2022-09-26T01:51:51.369Z,29.80
2022-09-26T01:53:00.857Z,29.69
2022-09-26T01:54:18.834Z,29.62
2022-09-26T01:55:38.844Z,29.55
2022-09-26T01:56:47.331Z,29.49
2022-09-26T01:58:28.275Z,29.44
2022-09-26T01:59:39.351Z,29.36
2022-09-26T02:00:48.070Z,29.30
2022-09-26T02:02:01.514Z,29.25
2022-09-26T02:03:10.952Z,29.20
2022-09-26T02:04:22.336Z,29.15
2022-09-26T02:05:39.959Z,29.10
2022-09-26T02:06:55.755Z,29.04
2022-09-26T02:08:26.092Z,28.98
2022-09-26T02:09:44.705Z,28.91
2022-09-26T02:11:01.462Z,28.87
2022-09-26T02:12:11.149Z,28.82
2022-09-26T02:13:27.419Z,28.78
2022-09-26T02:14:38.704Z,28.76
2022-09-26T02:15:48.810Z,28.71
2022-09-26T02:16:58.865Z,28.66
2022-09-26T02:18:17.386Z,28.61
2022-09-26T02:19:31.460Z,28.57
2022-09-26T02:20:41.416Z,28.53
2022-09-26T02:21:52.912Z,28.49
2022-09-26T02:23:01.389Z,28.44
2022-09-26T02:24:08.990Z,28.40
2022-09-26T02:25:16.728Z,28.36
2022-09-26T02:26:25.547Z,28.31
2022-09-26T02:27:37.182Z,28.26
2022-09-26T02:28:47.454Z,28.23
2022-09-26T02:29:59.436Z,28.19
2022-09-26T02:31:09.857Z,28.14
2022-09-26T02:32:20.773Z,28.10
2022-09-26T02:33:28.274Z,28.07
2022-09-26T02:34:35.926Z,28.04
2022-09-26T02:35:55.975Z,28.01
2022-09-26T02:37:07.012Z,27.97
2022-09-26T02:38:14.764Z,27.93
2022-09-26T02:39:35.194Z,27.89
2022-09-26T02:41:10.492Z,27.84
2022-09-26T02:42:42.365Z,27.79
2022-09-26T02:44:11.055Z,27.73
2022-09-26T02:45:42.789Z,27.68
2022-09-26T02:47:27.837Z,27.62
2022-09-26T02:49:01.493Z,27.56
2022-09-26T02:50:33.429Z,27.49
2022-09-26T02:52:17.416Z,27.44
2022-09-26T02:53:43.793Z,27.38
2022-09-26T02:55:12.496Z,27.33
2022-09-26T02:56:29.885Z,27.27
2022-09-26T02:58:15.404Z,27.24
2022-09-26T02:59:47.841Z,27.17
2022-09-26T03:01:23.646Z,27.13
2022-09-26T03:02:45.594Z,27.07
2022-09-26T03:04:23.213Z,27.02
2022-09-26T03:05:31.802Z,26.96
2022-09-26T03:06:45.275Z,26.91
2022-09-26T03:08:22.530Z,26.88
2022-09-26T03:09:30.503Z,26.83
2022-09-26T03:10:38.856Z,26.81
2022-09-26T03:11:47.431Z,26.77
2022-09-26T03:13:01.748Z,26.74
2022-09-26T03:14:08.857Z,26.70
2022-09-26T03:15:16.524Z,26.67
2022-09-26T03:16:24.822Z,26.66
2022-09-26T03:17:33.237Z,26.68
2022-09-26T03:19:05.353Z,26.67
2022-09-26T03:20:20.311Z,26.63
2022-09-26T03:21:28.627Z,26.59
2022-09-26T03:22:36.132Z,26.55
2022-09-26T03:23:43.838Z,26.53
2022-09-26T03:24:52.839Z,26.51
2022-09-26T03:26:02.233Z,26.47
2022-09-26T03:27:10.425Z,26.40
2022-09-26T03:28:18.540Z,26.31
2022-09-26T03:29:26.081Z,26.21
2022-09-26T03:30:33.299Z,26.12
2022-09-26T03:32:17.233Z,25.98
2022-09-26T03:33:25.216Z,25.88
2022-09-26T03:34:36.731Z,25.80
2022-09-26T03:35:44.734Z,25.72
2022-09-26T03:36:52.339Z,25.67
2022-09-26T03:38:00.219Z,25.60
2022-09-26T03:39:10.527Z,25.54
2022-09-26T03:40:43.541Z,25.46
2022-09-26T03:42:12.734Z,25.39
2022-09-26T03:43:20.863Z,25.35
2022-09-26T03:44:32.037Z,25.33
2022-09-26T03:46:19.129Z,25.29
2022-09-26T03:47:28.229Z,25.25
2022-09-26T03:48:37.336Z,25.22
2022-09-26T03:49:45.261Z,25.20
2022-09-26T03:50:53.525Z,25.17
2022-09-26T03:52:05.209Z,25.17
2022-09-26T03:53:16.222Z,25.16
2022-09-26T03:54:25.778Z,25.15
2022-09-26T03:55:33.786Z,25.13
2022-09-26T03:56:42.489Z,25.11
2022-09-26T03:57:50.037Z,25.09
2022-09-26T03:59:05.135Z,25.06
2022-09-26T04:00:14.092Z,25.02
2022-09-26T04:01:26.111Z,24.96
2022-09-26T04:02:33.927Z,24.92
2022-09-26T04:03:53.731Z,24.88
2022-09-26T04:05:01.857Z,24.83
2022-09-26T04:06:10.746Z,24.81
2022-09-26T04:07:19.293Z,24.77
2022-09-26T04:08:26.962Z,24.71
2022-09-26T04:09:38.295Z,24.66
2022-09-26T04:10:47.542Z,24.61
2022-09-26T04:11:56.579Z,24.57
2022-09-26T04:13:09.157Z,24.54
2022-09-26T04:14:19.052Z,24.52
2022-09-26T04:15:32.481Z,24.49
2022-09-26T04:16:52.627Z,24.45
2022-09-26T04:18:07.745Z,24.43
2022-09-26T04:19:17.063Z,24.41
2022-09-26T04:20:24.910Z,24.38
2022-09-26T04:21:32.775Z,24.36
2022-09-26T04:22:40.615Z,24.35
2022-09-26T04:23:51.989Z,24.34
2022-09-26T04:25:03.003Z,24.32
2022-09-26T04:26:20.117Z,24.30
2022-09-26T04:27:34.719Z,24.28
2022-09-26T04:28:46.947Z,24.25
2022-09-26T04:29:54.844Z,24.23
2022-09-26T04:31:38.483Z,24.18
2022-09-26T04:32:52.800Z,24.15
2022-09-26T04:34:17.735Z,24.14
2022-09-26T04:35:28.995Z,24.12
2022-09-26T04:36:36.510Z,24.10
2022-09-26T04:37:44.416Z,24.11
2022-09-26T04:38:56.522Z,24.10
2022-09-26T04:40:06.116Z,24.09
2022-09-26T04:41:21.305Z,24.06
2022-09-26T04:42:39.042Z,24.04
2022-09-26T04:43:51.023Z,24.04
2022-09-26T04:45:00.201Z,24.03
2022-09-26T04:46:21.613Z,24.02
2022-09-26T04:47:35.190Z,24.01
2022-09-26T04:49:08.829Z,24.01
2022-09-26T04:50:18.340Z,24.00
2022-09-26T04:51:43.705Z,24.02
2022-09-26T04:52:53.575Z,24.05
2022-09-26T04:54:01.221Z,24.08
2022-09-26T04:55:15.089Z,24.14
2022-09-26T04:56:23.907Z,24.17
2022-09-26T04:57:34.218Z,24.17
2022-09-26T04:58:43.612Z,24.16
2022-09-26T04:59:51.634Z,24.14
2022-09-26T05:01:07.827Z,24.12
2022-09-26T05:02:38.975Z,24.08
2022-09-26T05:03:46.716Z,24.05
2022-09-26T05:04:54.985Z,24.02
2022-09-26T05:06:02.757Z,24.01
2022-09-26T05:07:10.146Z,24.01
2022-09-26T05:08:18.060Z,24.00
2022-09-26T05:09:26.138Z,24.00
2022-09-26T05:10:38.833Z,24.00
2022-09-26T05:11:46.244Z,24.00
2022-09-26T05:12:54.144Z,23.97
2022-09-26T05:14:01.382Z,23.93
2022-09-26T05:15:13.114Z,23.93
2022-09-26T05:16:20.888Z,23.91
2022-09-26T05:17:29.166Z,23.87
2022-09-26T05:18:39.406Z,23.84
2022-09-26T05:19:47.124Z,23.83
2022-09-26T05:21:01.844Z,23.81
2022-09-26T05:22:09.351Z,23.81
2022-09-26T05:23:39.726Z,23.81
2022-09-26T05:25:11.787Z,23.79
2022-09-26T05:26:33.525Z,23.78
2022-09-26T05:27:42.581Z,23.76
2022-09-26T05:29:08.093Z,23.74
2022-09-26T05:30:42.896Z,23.72
2022-09-26T05:31:50.501Z,23.72
2022-09-26T05:32:58.844Z,23.71
2022-09-26T05:34:06.561Z,23.69
2022-09-26T05:35:13.718Z,23.67
2022-09-26T05:36:21.545Z,23.63
2022-09-26T05:37:29.172Z,23.60
2022-09-26T05:38:37.493Z,23.57
2022-09-26T05:40:03.499Z,23.54
2022-09-26T05:41:10.995Z,23.51
2022-09-26T05:42:20.770Z,23.49
2022-09-26T05:43:31.088Z,23.49
2022-09-26T05:44:41.961Z,23.49
2022-09-26T05:45:51.190Z,23.48
2022-09-26T05:47:02.707Z,23.47
2022-09-26T05:48:11.179Z,23.46
2022-09-26T05:49:20.667Z,23.44
2022-09-26T05:50:29.129Z,23.43
2022-09-26T05:51:37.485Z,23.43
2022-09-26T05:52:46.340Z,23.44
2022-09-26T05:54:02.904Z,23.43
2022-09-26T05:55:13.677Z,23.41
2022-09-26T05:56:46.197Z,23.42
2022-09-26T05:58:09.202Z,23.45
2022-09-26T05:59:36.048Z,23.46
2022-09-26T06:01:18.321Z,23.46
2022-09-26T06:02:27.918Z,23.44
2022-09-26T06:04:04.696Z,23.38
2022-09-26T06:05:17.506Z,23.32
2022-09-26T06:06:45.943Z,23.25
2022-09-26T06:07:56.728Z,23.21
2022-09-26T06:09:25.744Z,23.17
2022-09-26T06:10:44.348Z,23.14
2022-09-26T06:11:52.546Z,23.09
2022-09-26T06:13:04.150Z,23.05
2022-09-26T06:14:18.084Z,23.00
2022-09-26T06:15:28.208Z,22.96
2022-09-26T06:16:38.482Z,22.92
2022-09-26T06:17:51.030Z,22.88
2022-09-26T06:19:00.542Z,22.84
2022-09-26T06:20:09.271Z,22.81
2022-09-26T06:21:19.206Z,22.76
2022-09-26T06:22:31.382Z,22.72
2022-09-26T06:23:40.407Z,22.67
2022-09-26T06:24:51.844Z,22.63
2022-09-26T06:26:01.876Z,22.59
2022-09-26T06:27:10.680Z,22.55
2022-09-26T06:28:20.598Z,22.52
2022-09-26T06:29:29.365Z,22.49
2022-09-26T06:30:38.261Z,22.44
2022-09-26T06:31:55.572Z,22.39
2022-09-26T06:33:06.939Z,22.37
2022-09-26T06:34:54.643Z,22.35
2022-09-26T06:36:23.693Z,22.32
2022-09-26T06:37:33.092Z,22.29
2022-09-26T06:38:41.870Z,22.28
2022-09-26T06:39:59.227Z,22.25
2022-09-26T06:41:09.720Z,22.23
2022-09-26T06:42:25.075Z,22.18
2022-09-26T06:43:55.924Z,22.14
2022-09-26T06:45:35.074Z,22.09
2022-09-26T06:46:51.507Z,22.05
2022-09-26T06:48:11.300Z,22.01
2022-09-26T06:49:52.377Z,21.93
2022-09-26T06:51:09.771Z,21.91
2022-09-26T06:52:19.063Z,21.93
2022-09-26T06:53:27.955Z,21.95
2022-09-26T06:54:38.016Z,21.95
2022-09-26T06:55:46.934Z,21.93
2022-09-26T06:56:55.709Z,21.92
2022-09-26T06:58:03.804Z,21.91
2022-09-26T06:59:20.226Z,21.90
2022-09-26T07:00:48.427Z,21.88
2022-09-26T07:02:10.337Z,21.87
2022-09-26T07:03:42.949Z,21.84
2022-09-26T07:05:17.286Z,21.82
2022-09-26T07:06:32.838Z,21.81
2022-09-26T07:07:47.247Z,21.80
2022-09-26T07:09:08.602Z,21.80
2022-09-26T07:10:31.980Z,21.77
2022-09-26T07:13:24.134Z,21.71
2022-09-26T07:14:33.293Z,21.69
2022-09-26T07:15:50.253Z,21.67
2022-09-26T07:17:25.931Z,21.67
2022-09-26T07:18:54.488Z,21.72
2022-09-26T07:20:18.832Z,21.75
2022-09-26T07:21:48.108Z,21.79
2022-09-26T07:23:13.839Z,21.82
2022-09-26T07:24:22.901Z,21.81
2022-09-26T07:25:33.693Z,21.81
2022-09-26T07:26:46.004Z,21.81
2022-09-26T07:27:54.385Z,21.80
2022-09-26T07:29:11.661Z,21.78
2022-09-26T07:30:21.072Z,21.75
2022-09-26T07:31:40.270Z,21.71
2022-09-26T07:33:07.568Z,21.66
2022-09-26T07:34:27.418Z,21.60
2022-09-26T07:35:37.950Z,21.57
2022-09-26T07:36:49.446Z,21.55
2022-09-26T07:37:57.024Z,21.53
2022-09-26T07:39:05.710Z,21.50
2022-09-26T07:40:14.008Z,21.49
2022-09-26T07:41:22.969Z,21.48
2022-09-26T07:42:31.812Z,21.48
2022-09-26T07:44:30.276Z,21.48
2022-09-26T07:45:24.773Z,21.47
2022-09-26T07:46:57.285Z,21.47
2022-09-26T07:48:24.275Z,21.45
2022-09-26T07:50:18.443Z,21.40
2022-09-26T07:51:59.581Z,21.34
2022-09-26T07:53:28.799Z,21.29
2022-09-26T07:54:58.136Z,21.25
2022-09-26T07:56:39.714Z,21.23
2022-09-26T07:58:15.638Z,21.21
2022-09-26T07:59:29.269Z,21.18
2022-09-26T08:00:47.139Z,21.17
2022-09-26T08:02:21.215Z,21.21
2022-09-26T08:03:30.536Z,21.26
2022-09-26T08:04:42.241Z,21.30
2022-09-26T08:05:50.744Z,21.34
2022-09-26T08:07:01.501Z,21.37
2022-09-26T08:08:10.147Z,21.38
2022-09-26T08:09:39.284Z,21.39
2022-09-26T08:11:05.803Z,21.39
2022-09-26T08:12:49.676Z,21.39
2022-09-26T08:14:09.903Z,21.40
2022-09-26T08:15:29.853Z,21.40
2022-09-26T08:16:47.346Z,21.41
2022-09-26T08:17:56.025Z,21.40
2022-09-26T08:19:03.758Z,21.39
2022-09-26T08:20:12.646Z,21.38
2022-09-26T08:21:21.363Z,21.37
2022-09-26T08:22:32.461Z,21.36
2022-09-26T08:23:40.736Z,21.36
2022-09-26T08:25:11.852Z,21.35
2022-09-26T08:26:44.743Z,21.34
2022-09-26T08:28:00.856Z,21.31
2022-09-26T08:29:14.576Z,21.28
2022-09-26T08:30:29.236Z,21.23
2022-09-26T08:31:42.181Z,21.18
2022-09-26T08:33:01.253Z,21.12
2022-09-26T08:34:10.322Z,21.06
2022-09-26T08:35:18.835Z,21.01
2022-09-26T08:36:46.658Z,20.96
2022-09-26T08:38:09.097Z,20.92
2022-09-26T08:39:21.549Z,20.87
2022-09-26T08:41:14.781Z,20.81
2022-09-26T08:43:22.724Z,20.79
2022-09-26T08:45:02.192Z,20.77
2022-09-26T08:46:47.065Z,20.75
2022-09-26T08:48:22.009Z,20.75
2022-09-26T08:50:13.691Z,20.74
2022-09-26T08:51:52.385Z,20.72
2022-09-26T08:53:07.443Z,20.68
2022-09-26T08:54:35.770Z,20.65
2022-09-26T08:55:46.852Z,20.62
2022-09-26T08:56:58.320Z,20.61
2022-09-26T08:58:28.726Z,20.60
2022-09-26T08:59:46.969Z,20.58
2022-09-26T09:01:01.650Z,20.56
2022-09-26T09:02:20.542Z,20.53
2022-09-26T09:03:42.611Z,20.49
2022-09-26T09:05:09.412Z,20.45
2022-09-26T09:06:23.293Z,20.39
2022-09-26T09:07:37.664Z,20.35
2022-09-26T09:08:54.140Z,20.30
2022-09-26T09:10:19.577Z,20.23
2022-09-26T09:12:09.337Z,20.17
2022-09-26T09:13:45.452Z,20.13
2022-09-26T09:15:47.107Z,20.07
2022-09-26T09:17:36.707Z,20.02
2022-09-26T09:19:17.334Z,19.96
2022-09-26T09:20:49.058Z,19.93
2022-09-26T09:22:52.040Z,19.90
2022-09-26T09:24:14.696Z,19.85
2022-09-26T09:25:45.708Z,19.81
2022-09-26T09:29:10.451Z,19.77
2022-09-26T09:30:41.499Z,19.76
2022-09-26T09:32:11.762Z,19.79
2022-09-26T09:33:46.096Z,19.83
2022-09-26T09:35:22.770Z,19.89
2022-09-26T09:36:54.380Z,19.93
2022-09-26T09:38:41.015Z,19.98
2022-09-26T09:40:06.839Z,20.02
2022-09-26T09:41:40.458Z,20.07
2022-09-26T09:42:57.578Z,20.13
2022-09-26T09:44:12.924Z,20.18
2022-09-26T09:45:46.555Z,20.22
2022-09-26T09:46:53.919Z,20.26
2022-09-26T09:48:01.246Z,20.30
2022-09-26T09:49:11.240Z,20.34
2022-09-26T09:50:24.348Z,20.36
2022-09-26T09:51:53.987Z,20.38
2022-09-26T09:53:16.090Z,20.39
2022-09-26T09:54:50.803Z,20.41
2022-09-26T09:56:10.412Z,20.43
2022-09-26T09:57:44.695Z,20.46
2022-09-26T09:59:48.113Z,20.50
2022-09-26T10:01:12.168Z,20.47
2022-09-26T10:02:49.831Z,20.41
2022-09-26T10:04:14.020Z,20.31
2022-09-26T10:05:26.608Z,20.25
2022-09-26T10:06:46.407Z,20.19
2022-09-26T10:07:59.461Z,20.13
2022-09-26T10:09:35.828Z,20.06
2022-09-26T10:11:25.300Z,19.99
2022-09-26T10:12:40.922Z,19.93
2022-09-26T10:14:08.853Z,19.89
2022-09-26T10:15:34.695Z,19.85
2022-09-26T10:17:20.153Z,19.82
2022-09-26T10:19:16.369Z,19.77
2022-09-26T10:20:38.274Z,19.71
2022-09-26T10:21:48.085Z,19.66
2022-09-26T10:22:55.320Z,19.62
2022-09-26T10:24:06.260Z,19.61
2022-09-26T10:25:29.344Z,19.59
2022-09-26T10:26:37.428Z,19.57
2022-09-26T10:27:51.412Z,19.56
2022-09-26T10:28:58.674Z,19.55
2022-09-26T10:30:23.165Z,19.54
2022-09-26T10:31:42.846Z,19.51
2022-09-26T10:33:03.385Z,19.48
2022-09-26T10:34:33.436Z,19.45
2022-09-26T10:35:47.250Z,19.42
2022-09-26T10:36:57.483Z,19.39
2022-09-26T10:38:18.103Z,19.35
2022-09-26T10:39:50.919Z,19.31
2022-09-26T10:41:02.816Z,19.25
2022-09-26T10:42:32.516Z,19.21
2022-09-26T10:43:40.418Z,19.18
2022-09-26T10:44:56.476Z,19.16
2022-09-26T10:46:15.900Z,19.14
2022-09-26T10:47:42.585Z,19.09
2022-09-26T10:49:16.005Z,19.06
2022-09-26T10:51:03.077Z,19.00
2022-09-26T10:52:27.429Z,18.97
2022-09-26T10:53:37.638Z,18.93
2022-09-26T10:54:49.753Z,18.91
2022-09-26T10:56:02.170Z,18.91
2022-09-26T10:57:19.755Z,18.89
2022-09-26T10:58:30.995Z,18.87
2022-09-26T10:59:44.778Z,18.87
2022-09-26T11:00:52.848Z,18.89
2022-09-26T11:02:04.232Z,18.92
2022-09-26T11:03:13.436Z,18.95
2022-09-26T11:05:06.038Z,18.95
2022-09-26T11:06:46.996Z,18.90
2022-09-26T11:08:00.288Z,18.88
2022-09-26T11:09:32.292Z,18.85
2022-09-26T11:11:14.034Z,18.84
2022-09-26T11:12:31.790Z,18.86
2022-09-26T11:13:51.740Z,18.89
2022-09-26T11:15:01.130Z,18.91
2022-09-26T11:16:15.831Z,18.92
2022-09-26T11:17:25.322Z,18.92
2022-09-26T11:18:35.932Z,18.91
2022-09-26T11:20:10.728Z,18.90
2022-09-26T11:21:45.410Z,18.86
2022-09-26T11:23:30.530Z,18.84
2022-09-26T11:24:52.962Z,18.82
2022-09-26T11:26:39.115Z,18.79
2022-09-26T11:27:52.563Z,18.77
2022-09-26T11:29:22.413Z,18.76
2022-09-26T11:30:47.097Z,18.76
2022-09-26T11:31:59.475Z,18.77
2022-09-26T11:33:20.227Z,18.76
2022-09-26T11:34:47.930Z,18.75
2022-09-26T11:36:16.202Z,18.74
2022-09-26T11:37:32.881Z,18.71
2022-09-26T11:38:51.969Z,18.69
2022-09-26T11:40:35.932Z,18.67
2022-09-26T11:42:15.314Z,18.65
2022-09-26T11:43:36.140Z,18.64
2022-09-26T11:45:27.040Z,18.64
2022-09-26T11:47:06.190Z,18.62
2022-09-26T11:48:49.542Z,18.61
2022-09-26T11:50:53.714Z,18.58
2022-09-26T11:52:36.809Z,18.54
2022-09-26T11:54:04.027Z,18.51
2022-09-26T11:55:25.195Z,18.49
2022-09-26T11:57:10.823Z,18.47
2022-09-26T11:58:23.701Z,18.45
2022-09-26T11:59:39.201Z,18.45
2022-09-26T12:01:09.353Z,18.48
2022-09-26T12:02:33.370Z,18.51
2022-09-26T12:04:09.087Z,18.54
2022-09-26T12:05:43.922Z,18.58
2022-09-26T12:07:19.749Z,18.59
2022-09-26T12:08:53.126Z,18.59
2022-09-26T12:10:15.596Z,18.59
2022-09-26T12:11:55.372Z,18.59
2022-09-26T12:13:17.533Z,18.61
2022-09-26T12:14:43.245Z,18.64
2022-09-26T12:16:05.021Z,18.68
2022-09-26T12:17:53.736Z,18.73
2022-09-26T12:19:16.469Z,18.75
2022-09-26T12:20:41.066Z,18.77
2022-09-26T12:22:16.402Z,18.77
2022-09-26T12:23:46.236Z,18.75
2022-09-26T12:24:57.631Z,18.74
2022-09-26T12:26:36.855Z,18.71
2022-09-26T12:28:09.874Z,18.68
2022-09-26T12:29:17.362Z,18.65
2022-09-26T12:30:39.476Z,18.61
2022-09-26T12:32:03.202Z,18.58
2022-09-26T12:33:26.599Z,18.56
2022-09-26T12:34:48.709Z,18.52
2022-09-26T12:36:13.480Z,18.49
2022-09-26T12:37:51.232Z,18.47
2022-09-26T12:39:26.074Z,18.44
2022-09-26T12:41:24.673Z,18.40
2022-09-26T12:42:47.012Z,18.37
2022-09-26T12:44:06.569Z,18.34
2022-09-26T12:45:23.309Z,18.33
2022-09-26T12:46:59.017Z,18.33
2022-09-26T12:48:32.619Z,18.31
2022-09-26T12:50:08.808Z,18.30
2022-09-26T12:51:44.089Z,18.29
2022-09-26T12:52:57.208Z,18.27
2022-09-26T12:54:15.469Z,18.24
2022-09-26T12:55:34.668Z,18.21
2022-09-26T12:57:10.786Z,18.17
2022-09-26T12:58:38.643Z,18.11
2022-09-26T12:59:56.143Z,18.11
2022-09-26T13:01:13.694Z,18.13
2022-09-26T13:02:51.690Z,18.14
2022-09-26T13:04:26.135Z,18.13
2022-09-26T13:05:40.036Z,18.12
2022-09-26T13:07:21.784Z,18.12
2022-09-26T13:09:09.369Z,18.13
2022-09-26T13:10:31.628Z,18.13
2022-09-26T13:12:05.303Z,18.12
2022-09-26T13:13:48.874Z,18.10
2022-09-26T13:15:06.666Z,18.08
2022-09-26T13:16:35.503Z,18.08
2022-09-26T13:17:46.093Z,18.07
2022-09-26T13:18:58.931Z,18.04
2022-09-26T13:20:16.146Z,18.02
2022-09-26T13:21:42.835Z,18.01
2022-09-26T13:23:07.617Z,17.97
2022-09-26T13:24:20.834Z,17.95
2022-09-26T13:25:37.359Z,17.95
2022-09-26T13:26:48.177Z,17.94
2022-09-26T13:27:56.156Z,17.94
2022-09-26T13:29:23.861Z,17.92
2022-09-26T13:30:37.239Z,17.91
2022-09-26T13:32:24.722Z,17.90
2022-09-26T13:33:53.997Z,17.86
2022-09-26T13:35:07.873Z,17.82
2022-09-26T13:36:14.932Z,17.82
2022-09-26T13:37:30.278Z,17.82
2022-09-26T13:39:01.622Z,17.81
2022-09-26T13:40:29.804Z,17.78
2022-09-26T13:41:45.159Z,17.77
2022-09-26T13:43:26.356Z,17.78
2022-09-26T13:45:01.652Z,17.79
2022-09-26T13:46:22.056Z,17.79
2022-09-26T13:47:50.596Z,17.78
2022-09-26T13:49:36.389Z,17.77
2022-09-26T13:50:56.321Z,17.79
2022-09-26T13:52:23.603Z,17.83
2022-09-26T13:54:04.020Z,17.84
2022-09-26T13:55:16.404Z,17.83
2022-09-26T13:56:38.756Z,17.84
2022-09-26T13:58:11.862Z,17.88
2022-09-26T13:59:22.852Z,17.91
2022-09-26T14:00:33.207Z,17.92
2022-09-26T14:02:00.952Z,17.95
2022-09-26T14:03:11.608Z,18.01
2022-09-26T14:04:22.786Z,18.06
2022-09-26T14:05:30.288Z,18.13
2022-09-26T14:06:37.660Z,18.21
2022-09-26T14:08:03.075Z,18.32
2022-09-26T14:09:30.524Z,18.60
2022-09-26T14:10:39.066Z,18.99
2022-09-26T14:11:50.632Z,19.29
2022-09-26T14:13:13.686Z,19.51
2022-09-26T14:14:25.777Z,19.59
2022-09-26T14:15:51.632Z,19.59
2022-09-26T14:17:01.698Z,19.60
2022-09-26T14:18:13.147Z,19.71
2022-09-26T14:19:39.531Z,19.95
2022-09-26T14:21:16.001Z,20.36
2022-09-26T14:22:35.992Z,20.82
2022-09-26T14:23:50.286Z,21.23
2022-09-26T14:25:01.179Z,21.57
2022-09-26T14:26:13.038Z,21.90
2022-09-26T14:27:39.160Z,22.24
2022-09-26T14:28:54.188Z,22.62
2022-09-26T14:30:03.029Z,23.00
2022-09-26T14:31:28.560Z,23.43
2022-09-26T14:32:45.664Z,23.83
2022-09-26T14:34:06.065Z,24.01
2022-09-26T14:35:29.234Z,24.14
2022-09-26T14:36:37.249Z,24.41
2022-09-26T14:37:44.948Z,24.79
2022-09-26T14:38:52.635Z,25.15
2022-09-26T14:40:18.414Z,25.49
2022-09-26T14:41:29.355Z,25.85
2022-09-26T14:42:45.661Z,26.24
2022-09-26T14:43:53.608Z,26.60
2022-09-26T14:45:05.318Z,26.76
2022-09-26T14:46:24.735Z,26.83
2022-09-26T14:47:39.787Z,27.05
2022-09-26T14:48:47.106Z,27.36
2022-09-26T14:50:04.433Z,27.55
2022-09-26T14:51:17.803Z,27.66
2022-09-26T14:52:27.104Z,27.84
2022-09-26T14:54:05.753Z,28.11
2022-09-26T14:55:17.844Z,28.25
2022-09-26T14:56:42.350Z,28.39
2022-09-26T14:57:50.176Z,28.64
2022-09-26T14:59:26.766Z,28.88
2022-09-26T15:00:42.932Z,29.03
2022-09-26T15:01:50.583Z,29.17
2022-09-26T15:03:01.093Z,29.37
2022-09-26T15:04:17.627Z,29.55
2022-09-26T15:05:25.444Z,29.66
2022-09-26T15:06:33.488Z,29.77
2022-09-26T15:07:53.570Z,29.95
2022-09-26T15:09:01.387Z,29.99
2022-09-26T15:10:30.485Z,29.96
2022-09-26T15:11:47.496Z,29.94
2022-09-26T15:13:16.589Z,29.91
2022-09-26T15:14:33.640Z,29.90
2022-09-26T15:15:48.770Z,29.96
2022-09-26T15:16:56.458Z,29.99
2022-09-26T15:18:26.776Z,30.07
2022-09-26T15:19:37.610Z,30.13
2022-09-26T15:20:49.082Z,30.19
2022-09-26T15:22:17.344Z,30.19
2022-09-26T15:23:32.199Z,30.11
2022-09-26T15:24:39.489Z,30.08
2022-09-26T15:25:46.831Z,30.11
2022-09-26T15:26:54.116Z,30.19
2022-09-26T15:28:01.011Z,30.32
2022-09-26T15:29:08.981Z,30.32
2022-09-26T15:30:20.327Z,30.26
2022-09-26T15:31:41.709Z,30.32
2022-09-26T15:32:51.763Z,30.27
2022-09-26T15:34:03.371Z,30.13
2022-09-26T15:35:14.501Z,29.85
2022-09-26T15:36:21.900Z,29.66
2022-09-26T15:37:36.635Z,29.37
2022-09-26T15:38:47.078Z,29.19
2022-09-26T15:39:55.122Z,29.13
2022-09-26T15:41:03.598Z,29.24
2022-09-26T15:42:39.708Z,29.43
2022-09-26T15:43:47.108Z,29.56
2022-09-26T15:45:01.919Z,29.74
2022-09-26T15:46:27.043Z,29.96
2022-09-26T15:47:34.539Z,30.09
2022-09-26T15:48:42.608Z,30.05
2022-09-26T15:49:49.772Z,29.96
2022-09-26T15:51:20.632Z,29.91
2022-09-26T15:52:27.917Z,29.79
2022-09-26T15:53:52.614Z,29.62
2022-09-26T15:55:01.305Z,29.39
2022-09-26T15:56:14.534Z,29.21
2022-09-26T15:57:21.622Z,29.06
2022-09-26T15:58:39.876Z,28.97
2022-09-26T15:59:47.311Z,28.93
2022-09-26T16:00:54.693Z,28.94
2022-09-26T16:02:02.234Z,28.95
2022-09-26T16:03:48.529Z,28.99
2022-09-26T16:04:56.158Z,29.10
2022-09-26T16:06:03.628Z,29.14
2022-09-26T16:07:25.665Z,29.05
2022-09-26T16:08:34.428Z,29.07
2022-09-26T16:09:44.863Z,29.12
2022-09-26T16:10:59.197Z,29.29
2022-09-26T16:12:18.255Z,29.40
2022-09-26T16:13:27.403Z,29.46
2022-09-26T16:14:48.210Z,29.61
2022-09-26T16:16:14.475Z,30.06
2022-09-26T16:17:28.329Z,30.56
2022-09-26T16:18:40.074Z,30.82
2022-09-26T16:19:52.377Z,30.83
2022-09-26T16:21:19.505Z,30.82
2022-09-26T16:22:46.492Z,30.98
2022-09-26T16:23:55.218Z,31.21
2022-09-26T16:25:20.470Z,31.40
2022-09-26T16:26:32.899Z,31.49
2022-09-26T16:27:40.503Z,31.56
2022-09-26T16:28:53.665Z,31.55
2022-09-26T16:30:04.950Z,31.56
2022-09-26T16:31:19.988Z,31.57
2022-09-26T16:32:31.118Z,31.43
2022-09-26T16:33:48.377Z,31.38
2022-09-26T16:34:55.866Z,31.55
2022-09-26T16:36:13.322Z,31.76
2022-09-26T16:37:26.519Z,32.07
2022-09-26T16:38:37.456Z,32.32
2022-09-26T16:39:45.724Z,32.54
2022-09-26T16:41:00.825Z,32.60
2022-09-26T16:42:16.635Z,32.61
2022-09-26T16:43:32.945Z,32.55
2022-09-26T16:44:42.636Z,32.49
2022-09-26T16:46:02.033Z,32.45
2022-09-26T16:47:45.605Z,32.38
2022-09-26T16:48:53.815Z,32.49
2022-09-26T16:50:28.869Z,32.74
2022-09-26T16:51:41.277Z,32.86
2022-09-26T16:52:49.424Z,32.94
2022-09-26T16:54:10.112Z,33.07
2022-09-26T16:55:18.037Z,33.15
2022-09-26T16:56:26.492Z,33.22
2022-09-26T16:57:38.603Z,33.39